Time;durP1;ratioP1;P1;durP2;ratioP2;P2;SDS_P1;SDS_P2;PMS_P1;PMS_P2;Temp;Humidity;BMP_temperature;BMP_pressure;BME280_temperature;BME280_humidity;BME280_pressure;Samples;Min_cycle;Max_cycle;Signal;HPM_P1;HPM_P2
2023/04/10 00:00:22;;;;;;;15.52;10.60;;;;;;;;;;4976763;28;20058;-79
2023/04/10 00:02:49;;;;;;;15.05;10.52;;;;;;;;;;4993370;28;20054;-79
2023/04/10 00:05:16;;;;;;;13.52;10.00;;;;;;;;;;4993091;28;20053;-79
2023/04/10 00:07:43;;;;;;;13.68;9.60;;;;;;;;;;4993270;28;20486;-79
2023/04/10 00:10:10;;;;;;;14.30;10.02;;;;;;;;;;4992843;28;20050;-79
2023/04/10 00:12:36;;;;;;;15.00;10.20;;;;;;;;;;4992817;28;20062;-79
2023/04/10 00:15:04;;;;;;;14.25;9.68;;;;;;;;;;4976562;28;20093;-79
2023/04/10 00:17:30;;;;;;;14.52;10.60;;;;;;;;;;4993040;28;20057;-79
2023/04/10 00:19:58;;;;;;;16.92;10.25;;;;;;;;;;4976958;28;20085;-79
2023/04/10 00:22:25;;;;;;;14.40;10.20;;;;;;;;;;4992660;28;20058;-79
2023/04/10 00:24:52;;;;;;;13.43;10.05;;;;;;;;;;4992851;28;20522;-79
2023/04/10 00:27:19;;;;;;;15.65;11.02;;;;;;;;;;4976636;28;20049;-79
2023/04/10 00:29:46;;;;;;;13.50;10.63;;;;;;;;;;4976401;28;20052;-79
2023/04/10 00:32:12;;;;;;;14.55;10.45;;;;;;;;;;4992825;28;20056;-79
2023/04/10 00:34:39;;;;;;;14.95;10.30;;;;;;;;;;4992853;28;20057;-78
2023/04/10 00:37:06;;;;;;;13.93;9.50;;;;;;;;;;4993307;28;20103;-78
2023/04/10 00:39:33;;;;;;;13.63;9.98;;;;;;;;;;4992798;28;20047;-78
2023/04/10 00:42:01;;;;;;;12.35;9.77;;;;;;;;;;4992370;28;20050;-78
2023/04/10 00:44:27;;;;;;;15.23;10.38;;;;;;;;;;4992581;28;20050;-79
2023/04/10 00:46:54;;;;;;;15.30;11.23;;;;;;;;;;4992534;28;20046;-78
2023/04/10 00:49:21;;;;;;;15.63;10.75;;;;;;;;;;4976421;28;20058;-79
2023/04/10 00:51:48;;;;;;;13.20;9.88;;;;;;;;;;4976012;28;20513;-79
2023/04/10 00:54:15;;;;;;;15.00;10.82;;;;;;;;;;4994435;28;20435;-80
2023/04/10 00:56:42;;;;;;;15.80;11.82;;;;;;;;;;4993206;28;20134;-79
2023/04/10 00:59:09;;;;;;;15.00;10.40;;;;;;;;;;4992047;28;20081;-79
2023/04/10 01:01:36;;;;;;;14.13;11.18;;;;;;;;;;4975826;28;20458;-78
2023/04/10 01:04:02;;;;;;;13.30;8.95;;;;;;;;;;4992068;28;20130;-79
2023/04/10 01:06:53;;;;;;;14.07;9.98;;;;;;;;;;4992245;28;20065;-80
2023/04/10 01:09:51;;;;;;;13.27;9.90;;;;;;;;;;4991695;28;20046;-78
2023/04/10 01:12:41;;;;;;;14.65;10.43;;;;;;;;;;4992028;28;20117;-78
2023/04/10 01:15:09;;;;;;;13.65;10.40;;;;;;;;;;4991984;28;20050;-78
2023/04/10 01:17:56;;;;;;;16.10;10.80;;;;;;;;;;4991968;28;20050;-78
2023/04/10 01:20:25;;;;;;;15.98;10.60;;;;;;;;;;5007632;28;20054;-78
2023/04/10 01:23:29;;;;;;;14.75;9.95;;;;;;;;;;4975737;28;20069;-79
2023/04/10 01:26:00;;;;;;;14.20;10.52;;;;;;;;;;4991094;28;20058;-78
2023/04/10 01:28:48;;;;;;;15.52;10.38;;;;;;;;;;5008399;28;20050;-78
2023/04/10 01:31:19;;;;;;;14.38;10.23;;;;;;;;;;4991456;28;20057;-78
2023/04/10 01:33:49;;;;;;;14.32;10.25;;;;;;;;;;4975812;28;20173;-78
2023/04/10 01:36:27;;;;;;;14.60;10.00;;;;;;;;;;4992146;28;20062;-78
2023/04/10 01:38:54;;;;;;;14.05;10.00;;;;;;;;;;4975741;28;20047;-78
2023/04/10 01:41:21;;;;;;;17.67;11.40;;;;;;;;;;4991166;28;20499;-79
2023/04/10 01:43:49;;;;;;;16.20;10.93;;;;;;;;;;4975123;28;20054;-78
2023/04/10 01:46:18;;;;;;;14.13;10.45;;;;;;;;;;4975328;28;20054;-79
2023/04/10 01:48:45;;;;;;;14.50;9.93;;;;;;;;;;4975725;28;20058;-79
2023/04/10 01:51:13;;;;;;;13.57;9.70;;;;;;;;;;4975400;28;20399;-78
2023/04/10 01:53:39;;;;;;;14.43;9.82;;;;;;;;;;4975368;28;20108;-78
2023/04/10 01:56:07;;;;;;;16.35;10.88;;;;;;;;;;4991406;28;20502;-80
2023/04/10 01:58:34;;;;;;;15.57;10.00;;;;;;;;;;4991050;28;20148;-79
2023/04/10 02:01:01;;;;;;;17.13;11.82;;;;;;;;;;4974898;28;20058;-79
2023/04/10 02:03:28;;;;;;;15.48;10.93;;;;;;;;;;4991161;28;20046;-78
2023/04/10 02:06:14;;;;;;;15.27;11.07;;;;;;;;;;4990683;28;20050;-79
2023/04/10 02:09:18;;;;;;;14.82;10.43;;;;;;;;;;5006927;28;20688;-79
2023/04/10 02:11:57;;;;;;;;;;;;;;;;;;4962521;28;20505;-79
2023/04/10 02:14:24;;;;;;;14.88;10.70;;;;;;;;;;4990146;28;19922;-79
2023/04/10 02:16:53;;;;;;;14.98;10.85;;;;;;;;;;4974423;28;20065;-79
2023/04/10 02:19:20;;;;;;;14.80;10.77;;;;;;;;;;4974634;28;20054;-78
2023/04/10 02:21:46;;;;;;;14.18;10.57;;;;;;;;;;4974206;28;20057;-78
2023/04/10 02:24:13;;;;;;;21.98;11.38;;;;;;;;;;4975079;28;20050;-78
2023/04/10 02:26:47;;;;;;;15.15;10.27;;;;;;;;;;5007405;28;20521;-78
2023/04/10 02:29:14;;;;;;;15.90;10.80;;;;;;;;;;4974493;28;20142;-79
2023/04/10 02:31:41;;;;;;;16.35;10.82;;;;;;;;;;4990294;28;20053;-79
2023/04/10 02:34:08;;;;;;;14.80;10.77;;;;;;;;;;4974277;28;20050;-79
2023/04/10 02:36:36;;;;;;;17.13;11.02;;;;;;;;;;4974441;28;20503;-78
2023/04/10 02:39:04;;;;;;;15.90;11.77;;;;;;;;;;4976273;28;20050;-78
2023/04/10 02:41:30;;;;;;;15.93;11.32;;;;;;;;;;4994632;28;20054;-79
2023/04/10 02:43:57;;;;;;;15.77;10.45;;;;;;;;;;4994829;28;20050;-78
2023/04/10 02:46:24;;;;;;;13.55;10.00;;;;;;;;;;4994585;28;20427;-78
2023/04/10 02:48:51;;;;;;;14.93;10.18;;;;;;;;;;4994538;28;20483;-79
2023/04/10 02:51:18;;;;;;;16.45;11.45;;;;;;;;;;4994416;28;20054;-78
2023/04/10 02:53:46;;;;;;;14.90;11.02;;;;;;;;;;4978212;28;20450;-78
2023/04/10 02:56:13;;;;;;;15.73;10.32;;;;;;;;;;4994090;28;20050;-79
2023/04/10 02:58:44;;;;;;;13.88;10.60;;;;;;;;;;4977917;28;20053;-78
2023/04/10 03:01:11;;;;;;;15.20;10.35;;;;;;;;;;4993856;28;20055;-78
2023/04/10 03:03:38;;;;;;;14.73;10.40;;;;;;;;;;4993963;28;20056;-79
2023/04/10 03:06:07;;;;;;;15.90;10.48;;;;;;;;;;4977766;28;20396;-78
2023/04/10 03:08:34;;;;;;;14.50;10.02;;;;;;;;;;4994242;28;20414;-79
2023/04/10 03:11:01;;;;;;;14.10;9.48;;;;;;;;;;4993653;28;20050;-78
2023/04/10 03:13:27;;;;;;;13.73;9.13;;;;;;;;;;4993902;28;20050;-78
2023/04/10 03:15:54;;;;;;;13.35;9.93;;;;;;;;;;4993472;28;20050;-78
2023/04/10 03:18:21;;;;;;;13.70;9.38;;;;;;;;;;4995116;28;20058;-79
2023/04/10 03:20:48;;;;;;;13.15;9.30;;;;;;;;;;4997042;28;20513;-79
2023/04/10 03:23:15;;;;;;;15.27;9.60;;;;;;;;;;4993481;28;20061;-79
2023/04/10 03:25:42;;;;;;;13.07;9.07;;;;;;;;;;5009794;28;20463;-78
2023/04/10 03:28:09;;;;;;;11.55;9.30;;;;;;;;;;4993651;28;20133;-78
2023/04/10 03:30:35;;;;;;;12.68;8.93;;;;;;;;;;4993156;28;20058;-79
2023/04/10 03:33:02;;;;;;;13.75;9.75;;;;;;;;;;4993262;28;20061;-79
2023/04/10 03:35:29;;;;;;;14.05;9.48;;;;;;;;;;4993803;28;20050;-78
2023/04/10 03:37:56;;;;;;;14.73;9.77;;;;;;;;;;4993535;28;20050;-78
2023/04/10 03:40:23;;;;;;;12.95;9.23;;;;;;;;;;5009391;28;20086;-78
2023/04/10 03:42:50;;;;;;;12.38;9.60;;;;;;;;;;4993359;28;20054;-78
2023/04/10 03:45:16;;;;;;;12.38;8.65;;;;;;;;;;4993464;28;20058;-78
2023/04/10 03:47:43;;;;;;;15.63;10.52;;;;;;;;;;4993302;28;20053;-78
2023/04/10 03:50:10;;;;;;;15.43;9.57;;;;;;;;;;4993407;28;20517;-78
2023/04/10 03:52:37;;;;;;;13.30;9.43;;;;;;;;;;4993856;28;20422;-79
2023/04/10 03:55:04;;;;;;;14.68;9.93;;;;;;;;;;5009994;28;20200;-79
2023/04/10 03:57:31;;;;;;;13.65;9.57;;;;;;;;;;5009860;28;20538;-79
2023/04/10 03:59:58;;;;;;;13.35;9.25;;;;;;;;;;4993323;28;20145;-78
2023/04/10 04:02:24;;;;;;;14.70;9.70;;;;;;;;;;4993306;28;20058;-78
2023/04/10 04:04:51;;;;;;;15.13;10.45;;;;;;;;;;4993591;28;20068;-80
2023/04/10 04:07:18;;;;;;;15.57;9.70;;;;;;;;;;4993309;28;20108;-79
2023/04/10 04:09:45;;;;;;;13.18;9.07;;;;;;;;;;5009388;28;20050;-79
2023/04/10 04:12:12;;;;;;;13.65;9.63;;;;;;;;;;5009426;28;20421;-78
2023/04/10 04:14:38;;;;;;;13.40;9.88;;;;;;;;;;5009084;28;20419;-78
2023/04/10 04:17:05;;;;;;;14.13;10.45;;;;;;;;;;4992954;28;20056;-78
2023/04/10 04:19:32;;;;;;;13.80;9.75;;;;;;;;;;4976966;28;20069;-79
2023/04/10 04:21:59;;;;;;;14.38;9.88;;;;;;;;;;4992917;28;20375;-78
2023/04/10 04:24:26;;;;;;;13.65;9.43;;;;;;;;;;4976959;28;20177;-78
2023/04/10 04:26:53;;;;;;;13.73;9.98;;;;;;;;;;4992834;28;20077;-78
2023/04/10 04:29:19;;;;;;;13.35;9.30;;;;;;;;;;4992466;28;20049;-78
2023/04/10 04:31:46;;;;;;;12.55;8.65;;;;;;;;;;4992786;28;20133;-79
2023/04/10 04:34:13;;;;;;;13.20;9.05;;;;;;;;;;4992936;28;20050;-78
2023/04/10 04:36:40;;;;;;;11.68;8.85;;;;;;;;;;5009206;28;20054;-78
2023/04/10 04:39:06;;;;;;;12.80;8.88;;;;;;;;;;5008908;28;20423;-79
2023/04/10 04:41:33;;;;;;;13.27;8.95;;;;;;;;;;5008724;28;20058;-78
2023/04/10 04:44:00;;;;;;;11.68;8.55;;;;;;;;;;4992336;28;20054;-79
2023/04/10 04:46:27;;;;;;;14.10;9.32;;;;;;;;;;4975915;28;20054;-79
2023/04/10 04:48:54;;;;;;;12.90;9.70;;;;;;;;;;4991840;28;20073;-79
2023/04/10 04:51:21;;;;;;;11.95;9.07;;;;;;;;;;4991627;28;20065;-79
2023/04/10 04:53:48;;;;;;;12.43;8.70;;;;;;;;;;4991938;28;20054;-79
2023/04/10 04:56:15;;;;;;;13.23;9.27;;;;;;;;;;4991940;28;20057;-79
2023/04/10 04:58:41;;;;;;;14.93;10.52;;;;;;;;;;4992223;28;20060;-78
2023/04/10 05:01:08;;;;;;;14.05;10.13;;;;;;;;;;4974994;28;20056;-79
2023/04/10 05:03:35;;;;;;;14.15;10.55;;;;;;;;;;4975964;28;20254;-79
2023/04/10 05:06:02;;;;;;;12.70;9.85;;;;;;;;;;4992220;28;20081;-78
2023/04/10 05:08:29;;;;;;;12.77;9.48;;;;;;;;;;5008310;28;20050;-80
2023/04/10 05:10:55;;;;;;;12.15;8.98;;;;;;;;;;5007880;28;20058;-78
2023/04/10 05:13:22;;;;;;;14.80;9.90;;;;;;;;;;4991593;28;20530;-79
2023/04/10 05:15:49;;;;;;;12.07;8.90;;;;;;;;;;4991978;28;20054;-78
2023/04/10 05:18:18;;;;;;;14.98;9.43;;;;;;;;;;4975781;28;20065;-78
2023/04/10 05:20:46;;;;;;;13.00;9.40;;;;;;;;;;4976336;28;20121;-79
2023/04/10 05:23:13;;;;;;;15.00;9.32;;;;;;;;;;4975807;28;20060;-78
2023/04/10 05:25:40;;;;;;;13.35;9.07;;;;;;;;;;4991237;28;20046;-78
2023/04/10 05:28:07;;;;;;;13.00;8.95;;;;;;;;;;4992053;28;20065;-77
2023/04/10 05:30:33;;;;;;;13.25;8.73;;;;;;;;;;4991379;28;20050;-78
2023/04/10 05:33:00;;;;;;;12.70;9.18;;;;;;;;;;4992107;28;20454;-78
2023/04/10 05:35:27;;;;;;;13.77;9.18;;;;;;;;;;4991884;28;20054;-78
2023/04/10 05:37:54;;;;;;;13.35;9.68;;;;;;;;;;5009152;28;20057;-78
2023/04/10 05:40:20;;;;;;;11.70;8.52;;;;;;;;;;4992340;28;20054;-79
2023/04/10 05:42:47;;;;;;;12.60;8.77;;;;;;;;;;4991306;28;20053;-79
2023/04/10 05:45:14;;;;;;;12.52;8.80;;;;;;;;;;4990893;28;20541;-79
2023/04/10 05:47:41;;;;;;;12.75;9.45;;;;;;;;;;4991275;28;20057;-78
2023/04/10 05:50:08;;;;;;;12.07;8.65;;;;;;;;;;4990860;28;20057;-79
2023/04/10 05:52:35;;;;;;;11.77;8.38;;;;;;;;;;4991460;28;20054;-79
2023/04/10 05:55:02;;;;;;;12.85;9.23;;;;;;;;;;4991998;28;20065;-79
2023/04/10 05:57:29;;;;;;;13.02;9.02;;;;;;;;;;4975439;28;20050;-79
2023/04/10 05:59:56;;;;;;;11.90;8.82;;;;;;;;;;4991948;28;20046;-78
2023/04/10 06:02:23;;;;;;;11.60;8.70;;;;;;;;;;5007520;28;20441;-79
2023/04/10 06:04:50;;;;;;;11.88;8.50;;;;;;;;;;4991129;28;20062;-79
2023/04/10 06:07:17;;;;;;;11.75;8.50;;;;;;;;;;4991266;28;20134;-79
2023/04/10 06:09:44;;;;;;;13.43;9.10;;;;;;;;;;4990832;28;20054;-78
2023/04/10 06:12:10;;;;;;;11.98;9.18;;;;;;;;;;5006814;28;20054;-78
2023/04/10 06:14:37;;;;;;;11.30;8.30;;;;;;;;;;4990626;28;20050;-79
2023/04/10 06:17:04;;;;;;;13.25;8.48;;;;;;;;;;4990491;28;20057;-78
2023/04/10 06:19:30;;;;;;;11.07;8.10;;;;;;;;;;4990544;28;20054;-80
2023/04/10 06:21:57;;;;;;;12.07;8.32;;;;;;;;;;5007072;28;20109;-79
2023/04/10 06:24:24;;;;;;;11.95;8.45;;;;;;;;;;4974658;28;20058;-79
2023/04/10 06:26:50;;;;;;;10.38;7.90;;;;;;;;;;4990757;28;20446;-79
2023/04/10 06:29:17;;;;;;;11.35;8.50;;;;;;;;;;5006870;28;20043;-79
2023/04/10 06:31:44;;;;;;;10.68;7.40;;;;;;;;;;4990656;28;20054;-79
2023/04/10 06:34:11;;;;;;;12.70;8.43;;;;;;;;;;4990777;28;20066;-79
2023/04/10 06:36:37;;;;;;;11.25;8.27;;;;;;;;;;5006758;28;20050;-79
2023/04/10 06:39:05;;;;;;;11.65;7.75;;;;;;;;;;4990852;28;20046;-79
2023/04/10 06:41:32;;;;;;;13.35;7.80;;;;;;;;;;4990858;28;20161;-79
2023/04/10 06:43:58;;;;;;;10.77;8.10;;;;;;;;;;4990785;28;20046;-79
2023/04/10 06:46:28;;;;;;;8.98;7.03;;;;;;;;;;4991026;28;20490;-79
2023/04/10 06:48:55;;;;;;;8.52;6.93;;;;;;;;;;4990557;28;20088;-80
2023/04/10 06:51:22;;;;;;;11.85;7.53;;;;;;;;;;4990548;28;20058;-78
2023/04/10 06:53:49;;;;;;;9.52;7.38;;;;;;;;;;4991068;28;20061;-79
2023/04/10 06:56:15;;;;;;;10.55;7.05;;;;;;;;;;4990809;28;20046;-79
2023/04/10 06:58:42;;;;;;;8.52;6.25;;;;;;;;;;4990908;28;20542;-79
2023/04/10 07:01:09;;;;;;;8.27;6.70;;;;;;;;;;4990340;28;20057;-79
2023/04/10 07:03:36;;;;;;;9.30;6.32;;;;;;;;;;5006312;28;20105;-80
2023/04/10 07:06:03;;;;;;;8.60;6.20;;;;;;;;;;4990541;28;20417;-79
2023/04/10 07:08:29;;;;;;;9.38;6.60;;;;;;;;;;5006476;28;20080;-79
2023/04/10 07:10:56;;;;;;;8.05;6.00;;;;;;;;;;4990055;28;20080;-79
2023/04/10 07:13:24;;;;;;;9.15;6.47;;;;;;;;;;4990226;28;20046;-80
2023/04/10 07:15:51;;;;;;;8.68;6.40;;;;;;;;;;5006139;28;20054;-79
2023/04/10 07:18:18;;;;;;;8.68;6.28;;;;;;;;;;4990514;28;20061;-79
2023/04/10 07:20:45;;;;;;;6.60;5.68;;;;;;;;;;4990246;28;20057;-80
2023/04/10 07:23:12;;;;;;;8.68;6.43;;;;;;;;;;4991228;28;20046;-81
2023/04/10 07:25:41;;;;;;;7.25;6.13;;;;;;;;;;4993410;28;20398;-79
2023/04/10 07:28:07;;;;;;;7.07;5.43;;;;;;;;;;4978064;28;20046;-79
2023/04/10 07:30:34;;;;;;;8.48;5.82;;;;;;;;;;4993665;28;20052;-79
2023/04/10 07:33:01;;;;;;;6.90;5.18;;;;;;;;;;4994060;28;20138;-80
2023/04/10 07:35:28;;;;;;;7.88;5.93;;;;;;;;;;4994032;28;20050;-79
2023/04/10 07:37:55;;;;;;;7.20;5.22;;;;;;;;;;4993816;28;20062;-80
2023/04/10 07:40:21;;;;;;;7.57;5.65;;;;;;;;;;4994093;28;20056;-80
2023/04/10 07:42:49;;;;;;;6.90;5.20;;;;;;;;;;4994188;28;20054;-79
2023/04/10 07:45:19;;;;;;;5.93;4.90;;;;;;;;;;4994122;28;20218;-80
2023/04/10 07:47:45;;;;;;;6.13;4.70;;;;;;;;;;4994160;28;20057;-80
2023/04/10 07:50:12;;;;;;;6.10;5.38;;;;;;;;;;4994245;28;20056;-79
2023/04/10 07:52:39;;;;;;;8.43;5.53;;;;;;;;;;4993880;28;20054;-80
2023/04/10 07:55:06;;;;;;;8.23;5.88;;;;;;;;;;4994554;28;20177;-80
2023/04/10 07:57:33;;;;;;;6.22;4.75;;;;;;;;;;4994415;28;20084;-80
2023/04/10 08:00:00;;;;;;;5.95;5.00;;;;;;;;;;4994005;28;20058;-80
2023/04/10 08:02:26;;;;;;;6.85;5.13;;;;;;;;;;4994051;28;20407;-80
2023/04/10 08:04:53;;;;;;;7.13;5.20;;;;;;;;;;4993887;28;20149;-80
2023/04/10 08:07:21;;;;;;;5.95;4.72;;;;;;;;;;4993732;28;20097;-80
2023/04/10 08:09:48;;;;;;;6.07;5.13;;;;;;;;;;4977938;28;20185;-79
2023/04/10 08:12:15;;;;;;;4.90;4.38;;;;;;;;;;4993566;28;20057;-80
2023/04/10 08:14:43;;;;;;;5.03;4.53;;;;;;;;;;4994185;28;20050;-80
2023/04/10 08:17:13;;;;;;;5.68;4.70;;;;;;;;;;5010557;28;20050;-79
2023/04/10 08:19:41;;;;;;;5.40;4.72;;;;;;;;;;5010606;28;20137;-80
2023/04/10 08:22:09;;;;;;;7.78;4.78;;;;;;;;;;4977962;28;20050;-79
2023/04/10 08:24:35;;;;;;;5.13;4.50;;;;;;;;;;4993367;28;20061;-80
2023/04/10 08:27:02;;;;;;;4.40;3.97;;;;;;;;;;5009697;28;20089;-80
2023/04/10 08:29:29;;;;;;;4.45;3.78;;;;;;;;;;4993725;28;20061;-80
2023/04/10 08:31:59;;;;;;;5.10;4.55;;;;;;;;;;4993316;28;20080;-80
2023/04/10 08:34:26;;;;;;;5.43;4.05;;;;;;;;;;4993990;28;20904;-80
2023/04/10 08:36:53;;;;;;;4.78;4.25;;;;;;;;;;4976217;28;20054;-79
2023/04/10 08:39:20;;;;;;;4.05;3.65;;;;;;;;;;4993385;28;20052;-80
2023/04/10 08:41:47;;;;;;;3.95;3.55;;;;;;;;;;5009780;28;20058;-80
2023/04/10 08:44:13;;;;;;;3.90;3.40;;;;;;;;;;4993675;28;20061;-79
2023/04/10 08:46:42;;;;;;;4.15;3.75;;;;;;;;;;4993765;28;20057;-80
2023/04/10 08:49:12;;;;;;;4.75;3.85;;;;;;;;;;4977495;28;20466;-80
2023/04/10 08:51:46;;;;;;;4.28;3.88;;;;;;;;;;4993021;28;20050;-80
2023/04/10 08:54:19;;;;;;;4.10;3.67;;;;;;;;;;4992997;28;20053;-80
2023/04/10 08:56:50;;;;;;;4.40;3.05;;;;;;;;;;4977089;28;20089;-79
2023/04/10 08:59:16;;;;;;;4.40;4.00;;;;;;;;;;4993285;28;20051;-80
2023/04/10 09:01:43;;;;;;;3.78;3.10;;;;;;;;;;5009454;28;20130;-80
2023/04/10 09:04:11;;;;;;;4.60;3.50;;;;;;;;;;4993200;28;20514;-79
2023/04/10 09:06:38;;;;;;;3.65;3.15;;;;;;;;;;4977624;28;20057;-80
2023/04/10 09:09:05;;;;;;;4.07;3.13;;;;;;;;;;4993294;28;20418;-80
2023/04/10 09:11:50;;;;;;;4.25;3.30;;;;;;;;;;4976934;28;20054;-80
2023/04/10 09:14:28;;;;;;;4.38;3.40;;;;;;;;;;4993768;28;20058;-80
2023/04/10 09:17:17;;;;;;;4.30;3.42;;;;;;;;;;4976648;28;20050;-80
2023/04/10 09:19:45;;;;;;;4.55;3.10;;;;;;;;;;5009018;28;20517;-79
2023/04/10 09:22:12;;;;;;;3.53;3.22;;;;;;;;;;5008679;28;20104;-80
2023/04/10 09:24:41;;;;;;;3.80;3.28;;;;;;;;;;4976121;28;20519;-79
2023/04/10 09:27:08;;;;;;;3.33;2.95;;;;;;;;;;4976810;28;20046;-80
2023/04/10 09:29:47;;;;;;;3.53;3.22;;;;;;;;;;4992802;28;20054;-80
2023/04/10 09:32:36;;;;;;;3.58;3.28;;;;;;;;;;4977552;28;20478;-80
2023/04/10 09:35:04;;;;;;;3.20;2.90;;;;;;;;;;5008303;28;20050;-80
2023/04/10 09:37:32;;;;;;;3.75;3.00;;;;;;;;;;4976976;28;20058;-79
2023/04/10 09:39:59;;;;;;;3.08;2.72;;;;;;;;;;4992663;28;20058;-79
2023/04/10 09:42:36;;;;;;;3.75;3.17;;;;;;;;;;4992846;28;20058;-79
2023/04/10 09:45:03;;;;;;;3.63;2.72;;;;;;;;;;4992861;28;20054;-80
2023/04/10 09:47:31;;;;;;;2.85;2.50;;;;;;;;;;4992684;28;20406;-79
2023/04/10 09:49:59;;;;;;;3.38;3.08;;;;;;;;;;4992632;28;20137;-80
2023/04/10 09:52:27;;;;;;;3.45;3.05;;;;;;;;;;4992183;28;20136;-80
2023/04/10 09:54:58;;;;;;;3.38;2.90;;;;;;;;;;4992877;28;20113;-80
2023/04/10 09:57:26;;;;;;;3.08;2.78;;;;;;;;;;4976973;28;20058;-80
2023/04/10 09:59:57;;;;;;;2.63;2.42;;;;;;;;;;4976464;28;20082;-80
2023/04/10 10:02:25;;;;;;;4.93;2.50;;;;;;;;;;4976721;28;20092;-80
2023/04/10 10:04:52;;;;;;;3.53;3.13;;;;;;;;;;4977505;28;20153;-80
2023/04/10 10:07:20;;;;;;;3.78;2.58;;;;;;;;;;4992432;28;20054;-80
2023/04/10 10:09:49;;;;;;;2.58;2.38;;;;;;;;;;4976840;28;20057;-80
2023/04/10 10:12:36;;;;;;;2.95;2.65;;;;;;;;;;4992545;28;20050;-80
2023/04/10 10:15:12;;;;;;;2.65;2.05;;;;;;;;;;4975320;28;20065;-77
2023/04/10 10:18:09;;;;;;;2.42;2.13;;;;;;;;;;4990591;28;20557;-78
2023/04/10 10:20:36;;;;;;;2.10;1.90;;;;;;;;;;5006602;28;20050;-78
2023/04/10 10:23:03;;;;;;;2.95;2.63;;;;;;;;;;4990160;28;20051;-78
2023/04/10 10:25:30;;;;;;;3.15;2.50;;;;;;;;;;4974288;28;20046;-78
2023/04/10 10:27:59;;;;;;;2.58;2.10;;;;;;;;;;4974082;28;20102;-78
2023/04/10 10:30:25;;;;;;;2.83;2.25;;;;;;;;;;4973994;28;20050;-78
2023/04/10 10:32:57;;;;;;;2.22;2.03;;;;;;;;;;4990175;28;20054;-78
2023/04/10 10:35:25;;;;;;;2.33;2.10;;;;;;;;;;4990246;28;20054;-78
2023/04/10 10:38:12;;;;;;;2.42;1.80;;;;;;;;;;5003994;28;20054;-78
2023/04/10 10:40:51;;;;;;;2.05;1.85;;;;;;;;;;5005944;28;20047;-78
2023/04/10 10:43:37;;;;;;;2.10;1.90;;;;;;;;;;4974102;28;20051;-78
2023/04/10 10:46:08;;;;;;;1.88;1.75;;;;;;;;;;4974014;28;20050;-78
2023/04/10 10:48:35;;;;;;;3.35;1.80;;;;;;;;;;4974023;28;20066;-79
2023/04/10 10:51:03;;;;;;;1.90;1.80;;;;;;;;;;4989614;28;20097;-78
2023/04/10 10:53:41;;;;;;;2.00;1.70;;;;;;;;;;4989983;28;20050;-78
2023/04/10 10:56:17;;;;;;;1.73;1.63;;;;;;;;;;4974008;28;20053;-78
2023/04/10 10:58:49;;;;;;;1.50;1.40;;;;;;;;;;4989993;28;20058;-78
2023/04/10 11:01:17;;;;;;;2.33;1.70;;;;;;;;;;4977413;28;20679;-78
2023/04/10 11:03:44;;;;;;;1.50;1.40;;;;;;;;;;4977655;28;20081;-78
2023/04/10 11:06:18;;;;;;;1.95;1.77;;;;;;;;;;4993972;28;20058;-78
2023/04/10 11:08:51;;;;;;;2.17;1.98;;;;;;;;;;4993952;28;20137;-78
2023/04/10 11:11:23;;;;;;;3.20;2.33;;;;;;;;;;4993623;28;20069;-78
2023/04/10 11:13:56;;;;;;;2.00;1.33;;;;;;;;;;4993780;28;20058;-78
2023/04/10 11:16:23;;;;;;;2.08;1.95;;;;;;;;;;4993061;28;20105;-78
2023/04/10 11:18:50;;;;;;;2.30;2.00;;;;;;;;;;5009810;28;20050;-78
2023/04/10 11:21:36;;;;;;;1.98;1.63;;;;;;;;;;4993331;28;20109;-78
2023/04/10 11:24:04;;;;;;;2.40;1.83;;;;;;;;;;4993636;28;20499;-78
2023/04/10 11:29:03;;;;;;;2.38;1.70;;;;;;;;;;4994647;28;20138;-78
2023/04/10 11:31:30;;;;;;;2.13;1.70;;;;;;;;;;4993363;28;20046;-78
2023/04/10 11:34:09;;;;;;;1.70;1.55;;;;;;;;;;4993949;28;20069;-77
2023/04/10 11:36:41;;;;;;;1.70;1.55;;;;;;;;;;4993748;28;20081;-79
2023/04/10 11:39:09;;;;;;;1.95;1.77;;;;;;;;;;4993552;28;20056;-78
2023/04/10 11:41:37;;;;;;;2.55;1.50;;;;;;;;;;4992919;28;20411;-78
2023/04/10 11:44:06;;;;;;;1.50;1.40;;;;;;;;;;4977458;28;20050;-78
2023/04/10 11:46:37;;;;;;;1.77;1.50;;;;;;;;;;4977363;28;20145;-78
2023/04/10 11:49:04;;;;;;;1.50;1.40;;;;;;;;;;4976950;28;20065;-78
2023/04/10 11:51:31;;;;;;;1.58;1.38;;;;;;;;;;4993206;28;20050;-78
2023/04/10 11:54:09;;;;;;;1.23;1.13;;;;;;;;;;4976902;28;20139;-78
2023/04/10 11:56:38;;;;;;;1.60;1.50;;;;;;;;;;4993201;28;20420;-78
2023/04/10 11:59:12;;;;;;;1.67;1.42;;;;;;;;;;4993220;28;20054;-78
2023/04/10 12:01:39;;;;;;;1.52;1.42;;;;;;;;;;4993558;28;20489;-78
2023/04/10 12:04:19;;;;;;;1.98;1.23;;;;;;;;;;4992962;28;20549;-79
2023/04/10 12:06:48;;;;;;;1.27;1.17;;;;;;;;;;4992794;28;20405;-78
2023/04/10 12:09:16;;;;;;;1.90;1.33;;;;;;;;;;4992827;28;20046;-78
2023/04/10 12:12:00;;;;;;;1.30;1.20;;;;;;;;;;4976040;28;20133;-79
2023/04/10 12:14:39;;;;;;;1.38;1.27;;;;;;;;;;4976327;28;20054;-80
2023/04/10 12:17:07;;;;;;;2.67;1.30;;;;;;;;;;5013608;28;20373;-78
2023/04/10 12:19:36;;;;;;;1.30;1.20;;;;;;;;;;4981861;28;20051;-78
2023/04/10 12:22:03;;;;;;;1.52;1.23;;;;;;;;;;4996653;28;20054;-78
2023/04/10 12:24:50;;;;;;;1.10;1.00;;;;;;;;;;4994080;28;20046;-77
2023/04/10 12:27:27;;;;;;;1.10;1.00;;;;;;;;;;4976612;28;20054;-78
2023/04/10 12:29:56;;;;;;;0.90;0.90;;;;;;;;;;4976791;28;20050;-78
2023/04/10 12:32:23;;;;;;;1.00;1.00;;;;;;;;;;4976640;28;20058;-78
2023/04/10 12:34:59;;;;;;;0.98;0.93;;;;;;;;;;4976632;28;20082;-79
2023/04/10 12:37:49;;;;;;;0.85;0.80;;;;;;;;;;4993382;28;20055;-78
2023/04/10 12:40:16;;;;;;;0.90;0.90;;;;;;;;;;4992076;28;20046;-78
2023/04/10 12:42:43;;;;;;;0.60;0.60;;;;;;;;;;4992099;28;20453;-78
2023/04/10 12:45:12;;;;;;;0.80;0.73;;;;;;;;;;4992116;28;20057;-78
2023/04/10 12:47:47;;;;;;;0.60;0.57;;;;;;;;;;4992583;28;20054;-78
2023/04/10 12:50:15;;;;;;;0.85;0.70;;;;;;;;;;4992370;28;20097;-78
2023/04/10 12:53:00;;;;;;;0.57;0.57;;;;;;;;;;4975687;28;20054;-78
2023/04/10 12:55:27;;;;;;;1.70;0.88;;;;;;;;;;4992134;28;20410;-78
2023/04/10 12:57:55;;;;;;;0.73;0.73;;;;;;;;;;4991744;28;20061;-78
2023/04/10 13:00:22;;;;;;;1.00;0.70;;;;;;;;;;4991765;28;20058;-78
2023/04/10 13:02:49;;;;;;;0.82;0.82;;;;;;;;;;4991610;28;20099;-78
2023/04/10 13:05:16;;;;;;;0.75;0.75;;;;;;;;;;4991652;28;20098;-78
2023/04/10 13:07:43;;;;;;;0.60;0.60;;;;;;;;;;5007737;28;20463;-78
2023/04/10 13:10:10;;;;;;;0.70;0.70;;;;;;;;;;4991087;28;20043;-79
2023/04/10 13:12:37;;;;;;;1.02;0.75;;;;;;;;;;4991355;28;20570;-78
2023/04/10 13:15:06;;;;;;;0.98;0.90;;;;;;;;;;4991646;28;20062;-78
2023/04/10 13:17:33;;;;;;;0.68;0.65;;;;;;;;;;5007835;28;20058;-77
2023/04/10 13:20:00;;;;;;;0.93;0.93;;;;;;;;;;4991243;28;20470;-78
2023/04/10 13:22:27;;;;;;;2.10;1.13;;;;;;;;;;4990636;28;20469;-78
2023/04/10 13:24:53;;;;;;;1.27;1.00;;;;;;;;;;4991348;28;20050;-78
2023/04/10 13:27:20;;;;;;;1.42;0.80;;;;;;;;;;4991339;28;20169;-78
2023/04/10 13:29:47;;;;;;;1.30;0.80;;;;;;;;;;4991215;28;20058;-78
2023/04/10 13:32:14;;;;;;;0.82;0.82;;;;;;;;;;4991112;28;20133;-78
2023/04/10 13:34:41;;;;;;;0.88;0.88;;;;;;;;;;4991177;28;20054;-77
2023/04/10 13:37:12;;;;;;;1.00;0.98;;;;;;;;;;4991286;28;20057;-77
2023/04/10 13:39:38;;;;;;;1.05;0.95;;;;;;;;;;4975484;28;20054;-78
2023/04/10 13:42:05;;;;;;;1.10;1.00;;;;;;;;;;4990762;28;20054;-77
2023/04/10 13:44:32;;;;;;;0.80;0.80;;;;;;;;;;4991183;28;20133;-77
2023/04/10 13:46:58;;;;;;;1.00;1.00;;;;;;;;;;4991437;28;20051;-78
2023/04/10 13:49:29;;;;;;;1.20;1.10;;;;;;;;;;4991082;28;20054;-78
2023/04/10 13:51:56;;;;;;;1.40;1.30;;;;;;;;;;4990818;28;20061;-78
2023/04/10 13:54:23;;;;;;;1.38;1.27;;;;;;;;;;4974735;28;20244;-78
2023/04/10 13:56:50;;;;;;;1.10;1.00;;;;;;;;;;4991392;28;20047;-78
2023/04/10 13:59:16;;;;;;;1.02;1.02;;;;;;;;;;4991363;28;20054;-78
2023/04/10 14:01:43;;;;;;;1.30;1.20;;;;;;;;;;4991811;28;20046;-80
2023/04/10 14:04:10;;;;;;;1.05;0.98;;;;;;;;;;4992294;28;20133;-79
2023/04/10 14:06:37;;;;;;;1.00;0.90;;;;;;;;;;4992663;28;20054;-79
2023/04/10 14:09:03;;;;;;;1.10;1.00;;;;;;;;;;4991248;28;20054;-79
2023/04/10 14:11:30;;;;;;;1.20;1.10;;;;;;;;;;4990627;28;20061;-79
2023/04/10 14:13:57;;;;;;;1.20;1.08;;;;;;;;;;4990778;28;20050;-79
2023/04/10 14:16:24;;;;;;;1.30;1.08;;;;;;;;;;4990516;28;20399;-79
2023/04/10 14:18:51;;;;;;;1.30;1.20;;;;;;;;;;4990755;28;20053;-78
2023/04/10 14:21:17;;;;;;;1.10;1.00;;;;;;;;;;4990634;28;20129;-79
2023/04/10 14:23:46;;;;;;;1.17;1.08;;;;;;;;;;4991495;28;20065;-78
2023/04/10 14:26:13;;;;;;;1.20;1.00;;;;;;;;;;4976042;28;20056;-79
2023/04/10 14:28:40;;;;;;;1.33;1.17;;;;;;;;;;4991522;28;20050;-78
2023/04/10 14:31:06;;;;;;;1.10;1.00;;;;;;;;;;4991159;28;20054;-79
2023/04/10 14:33:34;;;;;;;1.00;0.90;;;;;;;;;;4992547;28;20050;-78
2023/04/10 14:36:00;;;;;;;1.35;1.17;;;;;;;;;;4995560;28;20055;-78
2023/04/10 14:38:27;;;;;;;1.30;1.10;;;;;;;;;;4995338;28;20046;-78
2023/04/10 14:40:54;;;;;;;1.15;0.95;;;;;;;;;;4996304;28;20046;-80
2023/04/10 14:43:21;;;;;;;1.08;1.00;;;;;;;;;;4994359;28;20586;-79
2023/04/10 14:45:47;;;;;;;1.15;1.00;;;;;;;;;;4994724;28;20057;-79
2023/04/10 14:48:14;;;;;;;1.55;1.45;;;;;;;;;;5010482;28;20137;-79